Time;durP1;ratioP1;P1;durP2;ratioP2;P2;SDS_P1;SDS_P2;PMS_P1;PMS_P2;Temp;Humidity;BMP_temperature;BMP_pressure;BME280_temperature;BME280_humidity;BME280_pressure;Samples;Min_cycle;Max_cycle;Signal;HPM_P1;HPM_P2
2022/03/22 00:00:02;;;;;;;;;;;;;;;18.20;32.95;102158.56;4978088;28;1208;-47
2022/03/22 00:02:37;;;;;;;;;;;;;;;18.16;32.88;102153.78;4992219;28;1914;-49
2022/03/22 00:05:03;;;;;;;;;;;;;;;18.04;32.87;102151.97;4996512;28;835;-50
2022/03/22 00:07:30;;;;;;;;;;;;;;;18.07;33.08;102147.88;4996976;28;882;-48
2022/03/22 00:09:55;;;;;;;;;;;;;;;18.52;32.36;102146.06;4996740;28;1397;-48
2022/03/22 00:12:20;;;;;;;;;;;;;;;18.80;31.67;102142.31;4995089;28;806;-48
2022/03/22 00:14:46;;;;;;;;;;;;;;;18.93;31.32;102149.44;4972033;28;1216;-46
2022/03/22 00:17:11;;;;;;;;;;;;;;;18.95;31.40;102141.72;4977619;28;1280;-45
2022/03/22 00:19:37;;;;;;;;;;;;;;;19.12;31.04;102138.91;4967206;28;1113;-46
2022/03/22 00:22:03;;;;;;;;;;;;;;;19.14;31.28;102137.56;4996505;28;1918;-48
2022/03/22 00:24:29;;;;;;;;;;;;;;;19.06;31.18;102135.25;4996541;28;987;-49
2022/03/22 00:26:55;;;;;;;;;;;;;;;18.86;31.53;102123.94;4977337;28;759;-49
2022/03/22 00:29:20;;;;;;;;;;;;;;;18.42;32.26;102120.03;4983862;28;853;-45
2022/03/22 00:31:46;;;;;;;;;;;;;;;18.13;33.04;102125.69;4978590;28;1104;-50
2022/03/22 00:34:13;;;;;;;;;;;;;;;17.89;33.35;102115.91;4977305;28;1146;-49
2022/03/22 00:36:41;;;;;;;;;;;;;;;17.83;33.44;102103.16;4977067;28;1047;-51
2022/03/22 00:39:07;;;;;;;;;;;;;;;17.88;33.36;102105.97;4972513;28;1233;-49
2022/03/22 00:41:32;;;;;;;;;;;;;;;17.87;33.21;102093.31;4972510;28;1914;-51
2022/03/22 00:43:57;;;;;;;;;;;;;;;18.01;33.16;102094.66;4976145;28;1264;-50
2022/03/22 00:46:23;;;;;;;;;;;;;;;18.15;32.78;102091.59;4977211;28;1149;-50
2022/03/22 00:48:48;;;;;;;;;;;;;;;18.05;33.13;102093.06;4977406;28;1221;-51
2022/03/22 00:51:14;;;;;;;;;;;;;;;18.01;33.02;102083.66;4977596;28;826;-48
2022/03/22 00:53:40;;;;;;;;;;;;;;;18.54;32.15;102086.06;4991820;28;823;-51
2022/03/22 00:56:06;;;;;;;;;;;;;;;18.83;31.63;102080.34;4995905;28;1011;-48
2022/03/22 00:58:32;;;;;;;;;;;;;;;19.22;31.13;102085.78;4993710;28;919;-49
2022/03/22 01:00:58;;;;;;;;;;;;;;;19.42;30.74;102077.72;4997904;28;1945;-49
2022/03/22 01:03:23;;;;;;;;;;;;;;;19.35;30.77;102074.34;5000118;28;838;-47
2022/03/22 01:05:52;;;;;;;;;;;;;;;17.81;33.50;102064.88;4987925;28;778;-50
2022/03/22 01:08:17;;;;;;;;;;;;;;;17.41;34.30;102058.41;5000468;28;806;-46
2022/03/22 01:10:43;;;;;;;;;;;;;;;17.79;33.53;102061.53;4999555;28;813;-48
2022/03/22 01:13:11;;;;;;;;;;;;;;;17.75;33.37;102050.22;4999379;28;1010;-48
2022/03/22 01:15:36;;;;;;;;;;;;;;;17.88;33.58;102048.19;4999726;28;871;-51
2022/03/22 01:18:06;;;;;;;;;;;;;;;18.46;32.46;102043.25;4996849;28;836;-49
2022/03/22 01:20:33;;;;;;;;;;;;;;;18.68;31.81;102040.50;4984505;28;1135;-51
2022/03/22 01:22:59;;;;;;;;;;;;;;;18.81;31.58;102040.09;4980848;28;1906;-50
2022/03/22 01:25:25;;;;;;;;;;;;;;;18.88;31.38;102037.19;4980261;28;1236;-49
2022/03/22 01:27:51;;;;;;;;;;;;;;;19.08;31.39;102028.31;4976742;28;997;-49
2022/03/22 01:30:19;;;;;;;;;;;;;;;19.21;30.90;102031.72;4990960;28;850;-47
2022/03/22 01:32:45;;;;;;;;;;;;;;;19.18;31.10;102026.75;4980312;28;882;-50
2022/03/22 01:35:10;;;;;;;;;;;;;;;18.86;31.51;102024.72;4981689;28;831;-50
2022/03/22 01:37:36;;;;;;;;;;;;;;;18.73;31.92;102017.69;4981077;28;779;-46
2022/03/22 01:40:01;;;;;;;;;;;;;;;18.12;32.66;102011.16;4980662;28;738;-49
2022/03/22 01:42:27;;;;;;;;;;;;;;;18.00;33.06;102012.34;4980502;28;1902;-47
2022/03/22 01:44:52;;;;;;;;;;;;;;;17.68;33.79;102010.19;4973962;28;815;-47
2022/03/22 01:47:19;;;;;;;;;;;;;;;17.75;33.55;101995.19;4980997;28;843;-46
2022/03/22 01:49:44;;;;;;;;;;;;;;;17.96;33.26;102001.00;4980632;28;814;-46
2022/03/22 01:52:17;;;;;;;;;;;;;;;17.93;33.39;101996.00;4980828;28;928;-49
2022/03/22 01:54:43;;;;;;;;;;;;;;;18.32;32.38;101998.75;4999339;28;774;-48
2022/03/22 01:57:09;;;;;;;;;;;;;;;18.60;32.05;101994.94;4991842;28;863;-50
2022/03/22 01:59:34;;;;;;;;;;;;;;;18.79;31.70;101975.34;4998532;28;826;-48
2022/03/22 02:07:28;;;;;;;;;;;;;;;19.13;31.11;101981.47;4984301;28;802;-49
2022/03/22 02:09:54;;;;;;;;;;;;;;;19.06;31.10;101971.78;4978890;28;968;-52
2022/03/22 02:12:19;;;;;;;;;;;;;;;18.72;31.50;101970.03;4998134;28;877;-49
2022/03/22 02:14:45;;;;;;;;;;;;;;;18.49;31.85;101973.88;4998431;28;866;-51
2022/03/22 02:17:11;;;;;;;;;;;;;;;18.14;32.65;101966.84;4998284;28;842;-51
2022/03/22 02:19:37;;;;;;;;;;;;;;;17.82;33.16;101967.47;4990760;28;1057;-52
2022/03/22 02:22:03;;;;;;;;;;;;;;;17.64;33.48;101965.81;4982445;28;1902;-51
2022/03/22 02:24:28;;;;;;;;;;;;;;;17.43;33.67;101971.03;4980285;28;1129;-50
2022/03/22 02:26:55;;;;;;;;;;;;;;;17.82;33.21;101966.66;4998743;28;961;-47
2022/03/22 02:29:20;;;;;;;;;;;;;;;18.59;31.59;101959.41;4989243;28;1003;-51
2022/03/22 02:31:46;;;;;;;;;;;;;;;19.09;30.94;101966.56;4998192;28;842;-46
2022/03/22 02:34:11;;;;;;;;;;;;;;;18.92;31.04;101957.59;4994661;28;840;-50
2022/03/22 02:36:37;;;;;;;;;;;;;;;18.66;31.32;101957.28;4998536;28;848;-47
2022/03/22 02:39:02;;;;;;;;;;;;;;;18.42;31.54;101957.56;4967304;28;1094;-50
2022/03/22 02:41:28;;;;;;;;;;;;;;;18.20;32.28;101962.25;4978790;28;1906;-52
2022/03/22 02:43:53;;;;;;;;;;;;;;;18.05;32.57;101966.47;4969386;28;1161;-48
2022/03/22 02:46:19;;;;;;;;;;;;;;;18.10;32.62;101957.44;4957814;28;1091;-51
2022/03/22 02:48:45;;;;;;;;;;;;;;;17.94;32.73;101959.16;4964908;28;1252;-51
2022/03/22 02:51:10;;;;;;;;;;;;;;;17.97;32.64;101964.16;4962589;28;1199;-51
2022/03/22 02:53:36;;;;;;;;;;;;;;;18.00;32.63;101958.13;4961546;28;1440;-49
2022/03/22 02:56:01;;;;;;;;;;;;;;;18.03;32.47;101952.09;4971671;28;1472;-48
2022/03/22 02:58:27;;;;;;;;;;;;;;;18.15;32.30;101940.16;4988775;28;897;-50
2022/03/22 03:00:52;;;;;;;;;;;;;;;18.29;31.90;101939.50;4994916;28;1883;-51
2022/03/22 03:03:21;;;;;;;;;;;;;;;18.59;31.32;101940.97;4997967;28;781;-47
2022/03/22 03:05:51;;;;;;;;;;;;;;;18.70;31.11;101930.06;4998001;28;854;-46
2022/03/22 03:08:16;;;;;;;;;;;;;;;18.88;30.89;101929.69;4997995;28;893;-48
2022/03/22 03:10:42;;;;;;;;;;;;;;;19.07;30.60;101940.34;4997216;28;841;-47
2022/03/22 03:13:07;;;;;;;;;;;;;;;19.24;30.25;101940.22;4981712;28;940;-50
2022/03/22 03:15:33;;;;;;;;;;;;;;;19.08;30.47;101940.09;4997510;28;853;-48
2022/03/22 03:17:58;;;;;;;;;;;;;;;19.02;30.63;101935.63;4997192;28;779;-46
2022/03/22 03:20:24;;;;;;;;;;;;;;;18.78;31.12;101930.41;4983405;28;934;-49
2022/03/22 03:22:49;;;;;;;;;;;;;;;18.44;31.30;101930.59;4979123;28;1934;-50
2022/03/22 03:25:15;;;;;;;;;;;;;;;18.03;32.42;101946.59;4985192;28;1136;-51
2022/03/22 03:27:40;;;;;;;;;;;;;;;17.85;32.52;101938.63;4984618;28;1578;-49
2022/03/22 03:30:06;;;;;;;;;;;;;;;17.87;32.61;101948.28;4997749;28;759;-49
2022/03/22 03:32:32;;;;;;;;;;;;;;;17.80;32.45;101928.41;4997023;28;857;-46
2022/03/22 03:34:58;;;;;;;;;;;;;;;17.99;32.60;101939.94;4997376;28;1488;-46
2022/03/22 03:37:24;;;;;;;;;;;;;;;18.55;31.47;101936.22;4992569;28;807;-48
2022/03/22 03:39:50;;;;;;;;;;;;;;;18.89;30.83;101942.41;4996882;28;853;-48
2022/03/22 03:42:15;;;;;;;;;;;;;;;19.20;30.27;101942.66;4995345;28;1977;-49
2022/03/22 03:47:25;;;;;;;;;;;;;;;18.63;31.23;101933.00;4978210;28;766;-50
2022/03/22 03:49:53;;;;;;;;;;;;;;;17.92;32.49;101939.31;4979399;28;925;-48
2022/03/22 03:52:19;;;;;;;;;;;;;;;17.44;33.62;101933.34;4997210;28;923;-48
2022/03/22 03:54:44;;;;;;;;;;;;;;;17.69;33.23;101941.16;4997047;28;783;-47
2022/03/22 03:57:10;;;;;;;;;;;;;;;18.01;32.62;101937.78;4996261;28;885;-47
2022/03/22 03:59:35;;;;;;;;;;;;;;;18.03;32.43;101935.59;4997235;28;754;-46
2022/03/22 04:02:01;;;;;;;;;;;;;;;18.23;32.16;101934.19;4983775;28;1974;-49
2022/03/22 04:04:26;;;;;;;;;;;;;;;18.37;31.91;101937.38;4986484;28;854;-47
2022/03/22 04:06:52;;;;;;;;;;;;;;;18.68;31.31;101938.56;4996677;28;829;-47
2022/03/22 04:09:18;;;;;;;;;;;;;;;18.77;31.18;101934.25;4996782;28;862;-45
2022/03/22 04:11:43;;;;;;;;;;;;;;;19.01;30.79;101935.88;4997071;28;850;-47
2022/03/22 04:14:10;;;;;;;;;;;;;;;18.97;30.51;101930.06;4991792;28;1053;-49
2022/03/22 04:16:39;;;;;;;;;;;;;;;19.05;31.00;101926.00;4995768;28;939;-48
2022/03/22 04:19:05;;;;;;;;;;;;;;;19.10;30.70;101926.88;4992563;28;1041;-44
2022/03/22 04:21:35;;;;;;;;;;;;;;;19.00;30.90;101929.56;4978028;28;1906;-46
2022/03/22 04:24:05;;;;;;;;;;;;;;;18.76;31.17;101918.81;4978046;28;813;-49
2022/03/22 04:26:34;;;;;;;;;;;;;;;18.29;32.02;101923.00;4977536;28;1174;-50
2022/03/22 04:34:27;;;;;;;;;;;;;;;17.77;32.67;101926.97;4996346;28;819;-48
2022/03/22 04:36:57;;;;;;;;;;;;;;;17.94;32.85;101915.13;4986339;28;777;-48
2022/03/22 04:39:25;;;;;;;;;;;;;;;18.73;31.14;101922.09;4978190;28;850;-49
2022/03/22 04:41:51;;;;;;;;;;;;;;;18.84;31.29;101913.94;4959046;28;1969;-47
2022/03/22 04:44:17;;;;;;;;;;;;;;;18.61;31.65;101918.66;4992834;28;1091;-48
2022/03/22 04:46:43;;;;;;;;;;;;;;;18.50;31.48;101923.22;4995994;28;849;-47
2022/03/22 04:49:08;;;;;;;;;;;;;;;18.28;32.10;101920.50;4996097;28;914;-47
2022/03/22 04:57:02;;;;;;;;;;;;;;;17.89;32.82;101915.88;4996415;28;825;-49
2022/03/22 04:59:28;;;;;;;;;;;;;;;17.92;32.84;101920.03;4977856;28;814;-50
2022/03/22 05:01:53;;;;;;;;;;;;;;;18.02;32.50;101924.84;4977536;28;1978;-47
2022/03/22 05:04:19;;;;;;;;;;;;;;;18.11;32.28;101915.88;4977825;28;857;-50
2022/03/22 05:06:45;;;;;;;;;;;;;;;18.32;32.13;101907.88;4989628;28;731;-52
2022/03/22 05:09:11;;;;;;;;;;;;;;;18.60;31.48;101905.97;4977077;28;1199;-47
2022/03/22 05:11:36;;;;;;;;;;;;;;;18.80;31.03;101906.19;4977928;28;821;-51
2022/03/22 05:14:01;;;;;;;;;;;;;;;18.94;30.81;101911.28;4977464;28;901;-51
2022/03/22 05:16:32;;;;;;;;;;;;;;;18.97;30.78;101908.00;4976923;28;861;-46
2022/03/22 05:18:57;;;;;;;;;;;;;;;19.08;30.60;101912.53;4977436;28;979;-50
2022/03/22 05:21:24;;;;;;;;;;;;;;;19.10;30.54;101904.00;4995494;28;1969;-50
2022/03/22 05:23:50;;;;;;;;;;;;;;;19.12;30.56;101897.09;4995668;28;1209;-51
2022/03/22 05:26:15;;;;;;;;;;;;;;;18.75;31.22;101905.31;4995223;28;1159;-50
2022/03/22 05:28:40;;;;;;;;;;;;;;;18.54;31.77;101896.00;4990902;28;845;-49
2022/03/22 05:31:06;;;;;;;;;;;;;;;18.35;32.02;101893.59;4995729;28;718;-52
2022/03/22 05:33:31;;;;;;;;;;;;;;;18.06;32.53;101903.97;4989687;28;818;-50
2022/03/22 05:35:58;;;;;;;;;;;;;;;17.64;33.35;101893.50;4996279;28;786;-52
2022/03/22 05:38:26;;;;;;;;;;;;;;;17.36;33.60;101893.38;4995641;28;814;-49
2022/03/22 05:40:52;;;;;;;;;;;;;;;17.77;33.08;101893.97;4996487;28;919;-50
2022/03/22 05:43:17;;;;;;;;;;;;;;;18.42;32.05;101896.97;4985722;28;1914;-51
2022/03/22 05:45:49;;;;;;;;;;;;;;;18.91;31.24;101900.78;4983030;28;886;-52
2022/03/22 05:48:17;;;;;;;;;;;;;;;18.81;31.32;101896.00;4990707;28;1089;-50
2022/03/22 05:50:43;;;;;;;;;;;;;;;18.49;31.63;101891.25;4990280;28;1193;-49
2022/03/22 05:53:10;;;;;;;;;;;;;;;18.29;32.20;101897.38;4999181;28;834;-50
2022/03/22 05:55:36;;;;;;;;;;;;;;;18.34;32.17;101888.34;4999675;28;855;-48
2022/03/22 05:58:01;;;;;;;;;;;;;;;18.27;32.08;101886.63;4989431;28;1156;-49
2022/03/22 06:00:27;;;;;;;;;;;;;;;18.12;32.43;101884.53;4982679;28;1232;-51
2022/03/22 06:02:52;;;;;;;;;;;;;;;18.34;32.09;101886.44;4980546;28;1910;-53
2022/03/22 06:05:18;;;;;;;;;;;;;;;18.19;32.17;101878.84;4980080;28;754;-53
2022/03/22 06:07:43;;;;;;;;;;;;;;;18.11;32.34;101879.28;4962512;28;790;-53
2022/03/22 06:10:09;;;;;;;;;;;;;;;18.27;32.03;101874.78;4982206;28;1166;-52
2022/03/22 06:12:39;;;;;;;;;;;;;;;18.23;32.23;101879.13;4991724;28;837;-52
2022/03/22 06:15:14;;;;;;;;;;;;;;;18.18;32.37;101866.16;4998858;28;837;-53
2022/03/22 06:17:40;;;;;;;;;;;;;;;18.52;31.74;101871.47;4998821;28;819;-50
2022/03/22 06:20:06;;;;;;;;;;;;;;;18.74;31.48;101868.66;4986601;28;966;-52
2022/03/22 06:22:31;;;;;;;;;;;;;;;18.93;30.90;101862.78;4978206;28;1914;-49
2022/03/22 06:24:57;;;;;;;;;;;;;;;18.98;30.97;101873.84;4989800;28;991;-52
2022/03/22 06:27:22;;;;;;;;;;;;;;;19.06;31.00;101865.09;4980949;28;1209;-52
2022/03/22 06:29:48;;;;;;;;;;;;;;;18.85;31.28;101868.75;4962520;28;1221;-50
2022/03/22 06:32:13;;;;;;;;;;;;;;;18.79;31.16;101870.63;4979850;28;1304;-51
2022/03/22 06:34:39;;;;;;;;;;;;;;;18.62;31.73;101871.56;4980122;28;863;-50
2022/03/22 06:37:05;;;;;;;;;;;;;;;18.33;31.94;101873.75;4989654;28;901;-51
2022/03/22 06:39:30;;;;;;;;;;;;;;;18.16;32.35;101875.75;4998459;28;882;-51
2022/03/22 06:41:56;;;;;;;;;;;;;;;17.76;33.12;101875.78;4998632;28;1906;-51
2022/03/22 06:44:21;;;;;;;;;;;;;;;17.49;33.63;101875.69;4985578;28;900;-46
2022/03/22 06:46:47;;;;;;;;;;;;;;;17.99;32.97;101878.59;4997917;28;787;-52
2022/03/22 06:49:12;;;;;;;;;;;;;;;18.98;31.06;101884.88;4992658;28;817;-52
2022/03/22 06:51:37;;;;;;;;;;;;;;;19.24;30.47;101877.63;4998225;28;807;-51
2022/03/22 06:54:03;;;;;;;;;;;;;;;18.94;30.94;101894.75;4998321;28;790;-52
2022/03/22 06:56:28;;;;;;;;;;;;;;;18.76;31.44;101877.50;4998329;28;834;-48
2022/03/22 06:58:54;;;;;;;;;;;;;;;18.47;31.98;101879.69;4982440;28;794;-49
2022/03/22 07:01:19;;;;;;;;;;;;;;;18.01;32.65;101882.75;4980836;28;1910;-49
2022/03/22 07:03:45;;;;;;;;;;;;;;;17.81;32.86;101891.56;4986849;28;1136;-51
2022/03/22 07:06:10;;;;;;;;;;;;;;;17.68;33.49;101889.97;4997647;28;830;-51
2022/03/22 07:08:36;;;;;;;;;;;;;;;17.50;33.55;101887.53;4987964;28;1228;-51
2022/03/22 07:13:46;;;;;;;;;;;;;;;18.85;31.25;101888.03;4988483;28;889;-52
2022/03/22 07:16:11;;;;;;;;;;;;;;;19.02;31.00;101888.75;4996411;28;886;-51
2022/03/22 07:18:37;;;;;;;;;;;;;;;19.05;31.06;101895.69;4996968;28;1116;-51
2022/03/22 07:21:04;;;;;;;;;;;;;;;18.92;31.33;101903.28;4978685;28;806;-55
2022/03/22 07:23:30;;;;;;;;;;;;;;;18.66;31.59;101899.41;4979291;28;865;-52
2022/03/22 07:25:55;;;;;;;;;;;;;;;18.43;31.80;101879.38;4978709;28;983;-52
2022/03/22 07:28:26;;;;;;;;;;;;;;;18.28;32.31;101898.47;4982382;28;889;-51
2022/03/22 07:30:51;;;;;;;;;;;;;;;18.46;32.10;101900.88;4979107;28;865;-52
2022/03/22 07:33:17;;;;;;;;;;;;;;;18.32;32.50;101898.81;4979121;28;814;-50
2022/03/22 07:35:42;;;;;;;;;;;;;;;18.02;32.54;101900.94;4980077;28;1070;-52
2022/03/22 07:38:07;;;;;;;;;;;;;;;17.85;33.06;101905.59;4981420;28;1279;-51
2022/03/22 07:40:33;;;;;;;;;;;;;;;17.76;33.27;101897.78;4987332;28;998;-53
2022/03/22 07:42:58;;;;;;;;;;;;;;;17.93;33.25;101896.94;4978262;28;1902;-54
2022/03/22 07:45:24;;;;;;;;;;;;;;;18.46;31.95;101897.28;4980145;28;1240;-53
2022/03/22 07:47:50;;;;;;;;;;;;;;;18.79;31.65;101899.00;4979130;28;1169;-48
2022/03/22 07:53:05;;;;;;;;;;;;;;;19.29;30.63;101883.19;4976716;28;1094;-54
2022/03/22 07:55:35;;;;;;;;;;;;;;;19.47;30.51;101898.47;4978828;28;1086;-52
2022/03/22 07:58:00;;;;;;;;;;;;;;;19.43;30.41;101886.31;4977231;28;1257;-51
2022/03/22 08:00:26;;;;;;;;;;;;;;;18.57;32.04;101903.75;4977506;28;1232;-52
2022/03/22 08:02:55;;;;;;;;;;;;;;;17.26;34.36;101904.22;4979518;28;1910;-54
2022/03/22 08:05:21;;;;;;;;;;;;;;;17.52;33.95;101901.88;4974558;28;1196;-53
2022/03/22 08:07:46;;;;;;;;;;;;;;;17.50;34.17;101893.03;4963049;28;1276;-51
2022/03/22 08:10:13;;;;;;;;;;;;;;;17.52;33.93;101891.69;4977408;28;1170;-53
2022/03/22 08:12:39;;;;;;;;;;;;;;;18.37;32.50;101888.69;4978235;28;1213;-53
2022/03/22 08:15:04;;;;;;;;;;;;;;;19.19;31.33;101893.31;4979883;28;1232;-51
2022/03/22 08:17:30;;;;;;;;;;;;;;;19.11;31.38;101911.16;4977031;28;1205;-51
2022/03/22 08:19:56;;;;;;;;;;;;;;;18.54;32.04;101893.25;4980690;28;1287;-52
2022/03/22 08:22:22;;;;;;;;;;;;;;;18.38;32.25;101906.84;4977702;28;1902;-50
2022/03/22 08:24:47;;;;;;;;;;;;;;;18.02;32.98;101892.66;4985380;28;1244;-51
2022/03/22 08:27:13;;;;;;;;;;;;;;;17.73;33.54;101909.31;4988437;28;1073;-51
2022/03/22 08:29:38;;;;;;;;;;;;;;;17.47;34.17;101905.34;4988339;28;1200;-53
2022/03/22 08:32:04;;;;;;;;;;;;;;;17.72;33.74;101896.63;4992376;28;850;-51
2022/03/22 08:34:29;;;;;;;;;;;;;;;17.92;33.49;101884.28;4988354;28;1041;-50
2022/03/22 08:36:55;;;;;;;;;;;;;;;18.40;32.55;101888.16;4979948;28;1221;-53
2022/03/22 08:39:20;;;;;;;;;;;;;;;18.69;31.84;101876.03;4988408;28;1185;-53
2022/03/22 08:41:45;;;;;;;;;;;;;;;18.86;31.71;101892.44;4996359;28;1973;-51
2022/03/22 08:44:11;;;;;;;;;;;;;;;18.98;31.64;101895.88;4988393;28;999;-54
2022/03/22 08:46:37;;;;;;;;;;;;;;;19.14;31.17;101883.06;4996264;28;842;-52
2022/03/22 08:49:02;;;;;;;;;;;;;;;19.02;31.37;101877.72;4996647;28;742;-51
2022/03/22 08:51:28;;;;;;;;;;;;;;;18.95;31.79;101874.38;4996046;28;1082;-54
2022/03/22 08:53:54;;;;;;;;;;;;;;;18.75;31.94;101875.00;4996349;28;712;-51
2022/03/22 08:56:22;;;;;;;;;;;;;;;18.73;31.88;101878.03;4992500;28;888;-50
2022/03/22 08:58:52;;;;;;;;;;;;;;;18.49;32.57;101876.66;4982283;28;833;-49
2022/03/22 09:01:17;;;;;;;;;;;;;;;18.47;32.58;101872.25;4977402;28;1902;-51
2022/03/22 09:03:43;;;;;;;;;;;;;;;18.30;32.75;101853.06;4977848;28;771;-51
2022/03/22 09:06:08;;;;;;;;;;;;;;;18.21;32.97;101871.13;4977325;28;806;-51
2022/03/22 09:08:37;;;;;;;;;;;;;;;17.88;33.44;101861.06;4981585;28;795;-53
2022/03/22 09:11:03;;;;;;;;;;;;;;;17.90;33.44;101875.41;4995984;28;898;-51
2022/03/22 09:13:31;;;;;;;;;;;;;;;18.15;33.30;101860.34;4994515;28;877;-52
2022/03/22 09:15:56;;;;;;;;;;;;;;;18.67;32.18;101870.78;4980334;28;1097;-51
2022/03/22 09:18:22;;;;;;;;;;;;;;;19.06;31.46;101853.25;4987657;28;1094;-54
2022/03/22 09:20:47;;;;;;;;;;;;;;;19.30;31.18;101845.41;4978657;28;1136;-53
2022/03/22 09:23:13;;;;;;;;;;;;;;;19.55;30.67;101836.44;4996853;28;1902;-54
2022/03/22 09:25:38;;;;;;;;;;;;;;;18.31;32.86;101826.34;4999746;28;979;-55
2022/03/22 09:28:06;;;;;;;;;;;;;;;17.85;33.60;101845.94;4987506;28;1054;-52
2022/03/22 09:30:32;;;;;;;;;;;;;;;16.81;35.56;101839.16;4988906;28;1061;-50
2022/03/22 09:32:57;;;;;;;;;;;;;;;17.65;34.06;101846.47;4986838;28;1105;-52
2022/03/22 09:35:23;;;;;;;;;;;;;;;17.79;34.08;101847.78;4978590;28;1185;-52
2022/03/22 09:37:49;;;;;;;;;;;;;;;18.26;33.11;101851.94;4980386;28;1177;-51
2022/03/22 09:40:15;;;;;;;;;;;;;;;18.49;32.50;101854.63;4980845;28;838;-52
2022/03/22 09:42:45;;;;;;;;;;;;;;;18.71;32.30;101855.41;4982277;28;1910;-53
2022/03/22 09:45:11;;;;;;;;;;;;;;;18.93;31.72;101854.53;4999653;28;843;-51
2022/03/22 09:47:37;;;;;;;;;;;;;;;19.13;31.36;101842.81;4996081;28;938;-54
2022/03/22 09:50:03;;;;;;;;;;;;;;;19.11;31.31;101832.06;4999216;28;850;-48
2022/03/22 09:52:28;;;;;;;;;;;;;;;19.04;31.75;101833.34;4999278;28;786;-49
2022/03/22 09:54:54;;;;;;;;;;;;;;;18.03;33.56;101852.22;4981878;28;890;-50
2022/03/22 09:57:19;;;;;;;;;;;;;;;17.49;34.50;101836.34;4995542;28;888;-51
2022/03/22 09:59:45;;;;;;;;;;;;;;;17.31;34.75;101860.31;4986446;28;774;-52
2022/03/22 10:02:10;;;;;;;;;;;;;;;17.92;33.64;101834.75;4998981;28;1906;-52
2022/03/22 10:04:36;;;;;;;;;;;;;;;17.92;33.52;101824.59;4981600;28;852;-54
2022/03/22 10:07:03;;;;;;;;;;;;;;;18.09;33.40;101840.16;4999422;28;823;-53
2022/03/22 10:09:30;;;;;;;;;;;;;;;18.42;32.78;101843.81;4999611;28;832;-53
2022/03/22 10:11:55;;;;;;;;;;;;;;;18.78;32.04;101849.69;4983058;28;922;-52
2022/03/22 10:14:31;;;;;;;;;;;;;;;18.83;31.98;101838.69;4980301;28;794;-53
2022/03/22 10:16:56;;;;;;;;;;;;;;;19.00;31.84;101851.53;4980571;28;775;-54
2022/03/22 10:19:22;;;;;;;;;;;;;;;19.17;31.42;101835.66;4979330;28;979;-53
2022/03/22 10:21:48;;;;;;;;;;;;;;;19.19;31.57;101838.16;4973745;28;1906;-52
2022/03/22 10:24:15;;;;;;;;;;;;;;;17.97;33.59;101847.75;4980050;28;1181;-52
2022/03/22 10:26:41;;;;;;;;;;;;;;;17.03;35.47;101840.09;4985842;28;798;-52
2022/03/22 10:29:07;;;;;;;;;;;;;;;17.38;34.45;101838.16;4989232;28;833;-52
2022/03/22 10:31:33;;;;;;;;;;;;;;;17.42;34.67;101836.56;4998334;28;910;-53
2022/03/22 10:33:58;;;;;;;;;;;;;;;17.35;34.75;101849.63;4997508;28;885;-53
2022/03/22 10:36:25;;;;;;;;;;;;;;;17.39;34.81;101848.03;4998822;28;837;-51
2022/03/22 10:38:53;;;;;;;;;;;;;;;18.17;33.20;101847.13;4995666;28;787;-53
2022/03/22 10:41:23;;;;;;;;;;;;;;;18.88;31.86;101854.47;4998562;28;1985;-51
2022/03/22 10:43:48;;;;;;;;;;;;;;;19.00;31.69;101848.75;4992642;28;864;-53
2022/03/22 10:46:16;;;;;;;;;;;;;;;18.74;32.13;101862.31;4998068;28;858;-53
2022/03/22 10:48:41;;;;;;;;;;;;;;;18.54;32.57;101858.28;4998194;28;806;-52
2022/03/22 10:51:07;;;;;;;;;;;;;;;18.26;33.19;101848.34;4992245;28;983;-53
2022/03/22 10:53:33;;;;;;;;;;;;;;;18.09;33.42;101846.50;4998260;28;814;-51
2022/03/22 10:55:58;;;;;;;;;;;;;;;17.93;33.66;101847.41;4998059;28;905;-52
2022/03/22 10:58:27;;;;;;;;;;;;;;;17.87;33.97;101841.00;4987247;28;832;-54
2022/03/22 11:00:53;;;;;;;;;;;;;;;17.82;34.02;101845.59;4979212;28;830;-53
2022/03/22 11:03:19;;;;;;;;;;;;;;;17.92;33.90;101843.00;4979677;28;1989;-54
2022/03/22 11:05:53;;;;;;;;;;;;;;;17.97;33.87;101848.56;4979528;28;1248;-52
2022/03/22 11:08:23;;;;;;;;;;;;;;;18.30;33.18;101850.31;4979716;28;810;-54
2022/03/22 11:10:49;;;;;;;;;;;;;;;18.36;32.90;101853.13;4979136;28;815;-53
2022/03/22 11:13:14;;;;;;;;;;;;;;;18.32;33.29;101871.25;4983210;28;846;-50
2022/03/22 11:15:41;;;;;;;;;;;;;;;18.27;33.34;101864.59;4994476;28;881;-53
2022/03/22 11:18:07;;;;;;;;;;;;;;;18.38;32.87;101857.28;4995226;28;779;-50
2022/03/22 11:20:32;;;;;;;;;;;;;;;18.41;33.15;101854.03;4965033;28;966;-50
2022/03/22 11:23:00;;;;;;;;;;;;;;;18.58;32.47;101858.56;4978889;28;1972;-51
2022/03/22 11:25:31;;;;;;;;;;;;;;;18.43;33.06;101860.09;4978775;28;1100;-53
2022/03/22 11:28:03;;;;;;;;;;;;;;;18.58;32.57;101867.69;4982515;28;735;-53
2022/03/22 11:30:29;;;;;;;;;;;;;;;18.45;32.72;101844.16;4995640;28;826;-53
2022/03/22 11:35:44;;;;;;;;;;;;;;;18.42;32.84;101833.63;4975318;28;1034;-49
2022/03/22 11:38:13;;;;;;;;;;;;;;;18.44;32.83;101845.22;4980436;28;1154;-51
2022/03/22 11:43:41;;;;;;;;;;;;;;;18.77;32.43;101879.13;4978938;28;1961;-50
2022/03/22 11:46:06;;;;;;;;;;;;;;;19.03;31.97;101873.03;4978900;28;1189;-50
2022/03/22 11:48:32;;;;;;;;;;;;;;;19.09;32.12;101875.56;4978747;28;1089;-52
2022/03/22 11:51:06;;;;;;;;;;;;;;;18.79;32.29;101892.69;4980292;28;1352;-46
2022/03/22 11:53:44;;;;;;;;;;;;;;;18.44;33.13;101874.72;4978729;28;1205;-51
2022/03/22 11:56:13;;;;;;;;;;;;;;;18.01;33.92;101890.19;4977999;28;1240;-50
2022/03/22 11:58:48;;;;;;;;;;;;;;;17.88;34.06;101883.09;4972179;28;938;-48
2022/03/22 12:01:16;;;;;;;;;;;;;;;17.75;34.14;101893.41;4977771;28;1917;-49
2022/03/22 12:03:48;;;;;;;;;;;;;;;17.78;34.26;101870.88;4977654;28;1177;-51
2022/03/22 12:06:13;;;;;;;;;;;;;;;17.76;34.40;101881.28;4978713;28;774;-50
2022/03/22 12:08:38;;;;;;;;;;;;;;;17.86;34.31;101877.00;4986883;28;961;-48
2022/03/22 12:11:04;;;;;;;;;;;;;;;17.87;34.22;101892.44;4986408;28;1125;-47
2022/03/22 12:13:30;;;;;;;;;;;;;;;17.98;34.04;101902.53;4977593;28;1237;-48
2022/03/22 12:15:59;;;;;;;;;;;;;;;18.07;33.73;101903.72;4977841;28;1078;-47
2022/03/22 12:18:28;;;;;;;;;;;;;;;18.39;33.42;101908.50;4990757;28;1193;-48
2022/03/22 12:20:56;;;;;;;;;;;;;;;18.71;32.52;101905.00;4989715;28;1287;-51
2022/03/22 12:23:21;;;;;;;;;;;;;;;18.81;32.31;101901.50;4996477;28;1979;-49
2022/03/22 12:25:47;;;;;;;;;;;;;;;18.97;32.21;101917.13;4996289;28;1205;-48
2022/03/22 12:28:12;;;;;;;;;;;;;;;19.09;32.23;101933.47;4987303;28;754;-51
2022/03/22 12:30:41;;;;;;;;;;;;;;;19.18;31.83;101938.50;4977969;28;806;-48
2022/03/22 12:33:14;;;;;;;;;;;;;;;18.79;32.43;101921.06;4991353;28;854;-52
2022/03/22 12:35:40;;;;;;;;;;;;;;;17.57;34.97;101927.53;4990400;28;746;-50
2022/03/22 12:38:05;;;;;;;;;;;;;;;17.05;35.73;101930.53;4978150;28;881;-50
2022/03/22 12:40:31;;;;;;;;;;;;;;;17.23;35.47;101938.53;4977472;28;1036;-48
2022/03/22 12:42:57;;;;;;;;;;;;;;;17.48;35.11;101936.44;4994939;28;1964;-53
2022/03/22 12:45:23;;;;;;;;;;;;;;;18.20;33.90;101940.22;4994704;28;1061;-50
2022/03/22 12:47:49;;;;;;;;;;;;;;;18.87;32.56;101949.22;4996392;28;821;-53
2022/03/22 12:50:15;;;;;;;;;;;;;;;18.71;32.87;101946.31;4996719;28;915;-48
2022/03/22 12:52:40;;;;;;;;;;;;;;;18.70;32.93;101960.34;4996687;28;858;-52
2022/03/22 12:55:06;;;;;;;;;;;;;;;18.63;32.99;101955.91;4995960;28;861;-48
2022/03/22 12:57:33;;;;;;;;;;;;;;;18.51;33.36;101957.09;4993955;28;850;-52
2022/03/22 12:59:58;;;;;;;;;;;;;;;18.28;33.73;101972.81;4998926;28;1189;-49
2022/03/22 13:02:24;;;;;;;;;;;;;;;18.04;34.16;101967.53;4991633;28;1905;-53
2022/03/22 13:04:50;;;;;;;;;;;;;;;18.08;33.92;101967.88;4992753;28;1089;-47
2022/03/22 13:07:25;;;;;;;;;;;;;;;18.09;34.02;101977.78;4981463;28;795;-51
2022/03/22 13:12:34;;;;;;;;;;;;;;;17.98;34.55;101989.75;4967235;28;775;-50
2022/03/22 13:15:07;;;;;;;;;;;;;;;18.29;33.88;101994.56;4985529;28;1363;-54
2022/03/22 13:17:43;;;;;;;;;;;;;;;18.54;33.46;101995.19;4978800;28;1125;-50
2022/03/22 13:20:15;;;;;;;;;;;;;;;18.78;33.06;101992.97;4979640;28;1251;-49